createdAt,value
2022-08-17T00:01:52.853Z,100888.00
2022-08-17T00:04:23.098Z,100882.00
2022-08-17T00:06:53.428Z,100881.22
2022-08-17T00:09:22.821Z,100884.09
2022-08-17T00:12:41.113Z,100881.97
2022-08-17T00:14:41.887Z,100872.31
2022-08-17T00:17:11.266Z,100870.72
2022-08-17T00:19:40.635Z,100874.38
2022-08-17T00:22:31.637Z,100877.78
2022-08-17T00:24:59.432Z,100872.28
2022-08-17T00:27:28.862Z,100864.94
2022-08-17T00:29:58.165Z,100864.44
2022-08-17T00:33:13.639Z,100850.78
2022-08-17T00:35:20.372Z,100857.34
2022-08-17T00:37:49.725Z,100858.91
2022-08-17T00:40:19.639Z,100863.84
2022-08-17T00:42:50.596Z,100863.00
2022-08-17T00:45:21.198Z,100861.44
2022-08-17T00:47:50.907Z,100862.72
2022-08-17T00:50:21.847Z,100863.75
2022-08-17T00:52:57.112Z,100865.31
2022-08-17T00:55:28.563Z,100866.63
2022-08-17T00:58:01.194Z,100858.25
2022-08-17T01:00:35.633Z,100863.22
2022-08-17T01:03:16.829Z,100857.75
2022-08-17T01:05:46.301Z,100847.00
2022-08-17T01:08:19.736Z,100852.22
2022-08-17T01:10:59.138Z,100836.78
2022-08-17T01:13:40.738Z,100837.31
2022-08-17T01:16:18.670Z,100839.38
2022-08-17T01:18:52.093Z,100843.81
2022-08-17T01:21:25.389Z,100843.28
2022-08-17T01:23:54.744Z,100833.88
2022-08-17T01:26:24.645Z,100841.72
2022-08-17T01:28:56.001Z,100834.13
2022-08-17T01:31:28.250Z,100838.00
2022-08-17T01:33:58.674Z,100836.47
2022-08-17T01:36:31.189Z,100827.84
2022-08-17T01:39:00.855Z,100829.38
2022-08-17T01:41:31.231Z,100827.00
2022-08-17T01:44:05.788Z,100818.41
2022-08-17T01:46:38.416Z,100819.72
2022-08-17T01:49:14.426Z,100819.16
2022-08-17T01:51:43.756Z,100812.03
2022-08-17T01:54:17.714Z,100819.91
2022-08-17T01:56:53.774Z,100818.06
2022-08-17T01:59:23.537Z,100812.81
2022-08-17T02:01:53.353Z,100813.84
2022-08-17T02:04:22.936Z,100821.88
2022-08-17T02:06:53.178Z,100822.09
2022-08-17T02:09:29.986Z,100821.59
2022-08-17T02:12:38.324Z,100814.53
2022-08-17T02:14:53.325Z,100808.22
2022-08-17T02:17:22.688Z,100819.19
2022-08-17T02:19:52.009Z,100808.22
2022-08-17T02:22:21.585Z,100787.22
2022-08-17T02:24:58.428Z,100805.31
2022-08-17T02:27:28.661Z,100805.09
2022-08-17T02:29:58.075Z,100802.19
2022-08-17T02:32:28.870Z,100797.75
2022-08-17T02:35:02.223Z,100803.97
2022-08-17T02:37:32.542Z,100801.38
2022-08-17T02:40:02.563Z,100797.47
2022-08-17T02:42:35.351Z,100796.19
2022-08-17T02:45:07.073Z,100793.28
2022-08-17T02:47:37.610Z,100801.63
2022-08-17T02:50:09.557Z,100785.50
2022-08-17T02:52:44.160Z,100795.13
2022-08-17T02:55:26.975Z,100782.63
2022-08-17T02:57:56.756Z,100780.78
2022-08-17T03:00:34.021Z,100779.75
2022-08-17T03:03:05.145Z,100767.22
2022-08-17T03:05:37.872Z,100772.97
2022-08-17T03:08:12.940Z,100766.19
2022-08-17T03:10:42.963Z,100769.13
2022-08-17T03:13:14.408Z,100773.88
2022-08-17T03:15:45.734Z,100769.34
2022-08-17T03:18:19.260Z,100775.38
2022-08-17T03:20:54.218Z,100770.66
2022-08-17T03:23:25.586Z,100775.38
2022-08-17T03:25:56.285Z,100774.16
2022-08-17T03:28:26.271Z,100778.59
2022-08-17T03:30:55.808Z,100762.69
2022-08-17T03:33:25.649Z,100775.19
2022-08-17T03:35:55.288Z,100781.47
2022-08-17T03:38:24.864Z,100781.22
2022-08-17T03:40:59.787Z,100779.91
2022-08-17T03:43:35.149Z,100783.06
2022-08-17T03:46:32.451Z,100779.66
2022-08-17T03:49:20.867Z,100780.44
2022-08-17T03:52:02.855Z,100778.88
2022-08-17T03:54:44.696Z,100781.75
2022-08-17T03:57:14.848Z,100774.75
2022-08-17T03:59:44.946Z,100781.00
2022-08-17T04:02:21.449Z,100780.72
2022-08-17T04:04:52.852Z,100789.56
2022-08-17T04:07:27.867Z,100792.97
2022-08-17T04:09:58.183Z,100791.41
2022-08-17T04:12:30.983Z,100791.41
2022-08-17T04:15:00.811Z,100802.91
2022-08-17T04:17:31.986Z,100797.16
2022-08-17T04:20:01.399Z,100802.06
2022-08-17T04:22:34.210Z,100803.38
2022-08-17T04:25:19.312Z,100807.84
2022-08-17T04:27:48.791Z,100801.22
2022-08-17T04:30:18.926Z,100794.41
2022-08-17T04:33:06.470Z,100801.94
2022-08-17T04:35:40.849Z,100798.00
2022-08-17T04:38:12.856Z,100795.41
2022-08-17T04:40:55.031Z,100797.94
2022-08-17T04:43:27.454Z,100795.81
2022-08-17T04:46:02.516Z,100797.63
2022-08-17T04:48:37.212Z,100802.84
2022-08-17T04:51:16.988Z,100802.38
2022-08-17T04:53:54.187Z,100796.41
2022-08-17T04:56:25.952Z,100807.88
2022-08-17T04:58:58.512Z,100798.00
2022-08-17T05:01:31.245Z,100804.28
2022-08-17T05:04:32.802Z,100799.59
2022-08-17T05:07:01.451Z,100803.22
2022-08-17T05:09:31.049Z,100810.03
2022-08-17T05:12:04.092Z,100800.13
2022-08-17T05:14:34.018Z,100791.81
2022-08-17T05:17:07.034Z,100805.69
2022-08-17T05:19:41.175Z,100801.56
2022-08-17T05:22:10.619Z,100807.59
2022-08-17T05:24:43.490Z,100834.28
2022-08-17T05:27:23.481Z,100857.53
2022-08-17T05:29:52.924Z,100832.22
2022-08-17T05:32:38.185Z,100830.69
2022-08-17T05:35:10.232Z,100856.78
2022-08-17T05:37:42.405Z,100879.75
2022-08-17T05:40:12.356Z,100879.75
2022-08-17T05:42:44.144Z,100879.75
2022-08-17T05:45:46.075Z,100859.84
2022-08-17T05:48:07.911Z,100870.69
2022-08-17T05:50:51.039Z,100857.56
2022-08-17T05:53:51.077Z,100884.28
2022-08-17T05:56:43.427Z,100860.81
2022-08-17T05:59:26.689Z,100871.88
2022-08-17T06:02:07.108Z,100887.41
2022-08-17T06:05:02.521Z,100859.22
2022-08-17T06:07:42.759Z,100857.53
2022-08-17T06:11:05.579Z,100859.38
2022-08-17T06:14:12.412Z,100857.41
2022-08-17T06:16:49.085Z,100832.88
2022-08-17T06:19:25.638Z,100825.75
2022-08-17T06:21:57.513Z,100822.50
2022-08-17T06:24:42.024Z,100821.06
2022-08-17T06:27:33.211Z,100831.97
2022-08-17T06:30:22.508Z,100850.47
2022-08-17T06:32:53.690Z,100842.88
2022-08-17T06:35:42.389Z,100834.13
2022-08-17T06:38:38.221Z,100838.63
2022-08-17T06:41:37.825Z,100852.94
2022-08-17T06:44:43.132Z,100856.50
2022-08-17T06:47:31.625Z,100858.88
2022-08-17T06:50:11.772Z,100854.34
2022-08-17T06:53:04.039Z,100851.63
2022-08-17T06:56:09.600Z,100868.84
2022-08-17T06:58:43.446Z,100881.22
2022-08-17T07:01:18.025Z,100875.34
2022-08-17T07:03:54.665Z,100877.47
2022-08-17T07:06:30.559Z,100880.63
2022-08-17T07:09:17.420Z,100886.88
2022-08-17T07:12:02.612Z,100880.34
2022-08-17T07:14:41.062Z,100879.34
2022-08-17T07:17:17.361Z,100875.69
2022-08-17T07:19:50.154Z,100884.06
2022-08-17T07:22:25.553Z,100879.22
2022-08-17T07:24:59.765Z,100887.53
2022-08-17T07:27:40.867Z,100894.88
2022-08-17T07:30:20.048Z,100891.50
2022-08-17T07:33:20.263Z,100894.44
2022-08-17T07:35:50.294Z,100904.34
2022-08-17T07:38:25.282Z,100911.69
2022-08-17T07:41:02.145Z,100908.16
2022-08-17T07:43:52.430Z,100905.91
2022-08-17T07:47:02.093Z,100910.16
2022-08-17T07:49:34.170Z,100906.84
2022-08-17T07:52:48.495Z,100906.88
2022-08-17T07:55:29.456Z,100908.22
2022-08-17T07:58:02.078Z,100909.56
2022-08-17T08:00:33.660Z,100922.97
2022-08-17T08:03:34.689Z,100926.69
2022-08-17T08:06:05.392Z,100943.44
2022-08-17T08:08:45.029Z,100938.97
2022-08-17T08:11:30.777Z,100942.13
2022-08-17T08:14:28.214Z,100931.00
2022-08-17T08:17:01.999Z,100929.69
2022-08-17T08:19:33.386Z,100920.53
2022-08-17T08:22:13.100Z,100914.78
2022-08-17T08:25:07.316Z,100920.56
2022-08-17T08:27:45.804Z,100925.06
2022-08-17T08:30:21.966Z,100921.47
2022-08-17T08:33:17.318Z,100906.88
2022-08-17T08:35:58.571Z,100903.75
2022-08-17T08:38:54.961Z,100899.25
2022-08-17T08:41:44.917Z,100912.84
2022-08-17T08:44:59.702Z,100905.53
2022-08-17T08:47:55.525Z,100898.00
2022-08-17T08:50:38.265Z,100893.66
2022-08-17T08:53:39.055Z,100889.28
2022-08-17T08:56:36.670Z,100886.47
2022-08-17T08:59:14.518Z,100889.31
2022-08-17T09:02:05.099Z,100894.53
2022-08-17T09:05:14.181Z,100903.97
2022-08-17T09:08:12.963Z,100912.06
2022-08-17T09:10:51.386Z,100912.38
2022-08-17T09:13:29.736Z,100914.97
2022-08-17T09:16:09.506Z,100916.81
2022-08-17T09:19:01.044Z,100926.28
2022-08-17T09:21:49.254Z,100932.34
2022-08-17T09:24:34.619Z,100938.63
2022-08-17T09:27:11.121Z,100939.16
2022-08-17T09:29:46.004Z,100934.69
2022-08-17T09:32:31.355Z,100939.19
2022-08-17T09:35:08.083Z,100943.63
2022-08-17T09:37:57.323Z,100944.69
2022-08-17T09:40:42.144Z,100942.06
2022-08-17T09:43:43.169Z,100948.84
2022-08-17T09:46:25.191Z,100945.16
2022-08-17T09:49:25.042Z,100946.47
2022-08-17T09:52:01.181Z,100966.91
2022-08-17T09:54:39.876Z,100976.06
2022-08-17T09:57:29.173Z,101001.53
2022-08-17T10:00:13.532Z,101005.69
2022-08-17T10:03:01.627Z,101010.41
2022-08-17T10:05:30.887Z,101014.34
2022-08-17T10:08:09.736Z,101016.22
2022-08-17T10:10:56.461Z,101012.53
2022-08-17T10:14:02.281Z,101016.97
2022-08-17T10:17:01.983Z,101018.28
2022-08-17T10:19:44.281Z,101018.53
2022-08-17T10:22:43.949Z,101012.50
2022-08-17T10:25:42.937Z,101003.09
2022-08-17T10:28:29.375Z,101007.53
2022-08-17T10:34:20.037Z,101019.38
2022-08-17T10:37:10.935Z,101007.84
2022-08-17T10:39:58.548Z,101005.97
2022-08-17T10:42:33.893Z,101007.31
2022-08-17T10:45:44.270Z,101005.97
2022-08-17T10:48:16.716Z,101002.34
2022-08-17T10:50:49.717Z,101008.06
2022-08-17T10:53:34.590Z,101001.78
2022-08-17T10:56:17.529Z,100998.34
2022-08-17T10:58:59.331Z,100999.69
2022-08-17T11:01:31.661Z,101003.31
2022-08-17T11:04:19.726Z,101008.56
2022-08-17T11:07:08.794Z,101017.97
2022-08-17T11:10:16.396Z,101016.41
2022-08-17T11:12:48.934Z,101016.41
2022-08-17T11:15:24.733Z,101012.75
2022-08-17T11:18:16.016Z,101008.31
2022-08-17T11:21:11.117Z,100999.41
2022-08-17T11:24:10.600Z,101002.03
2022-08-17T11:26:46.795Z,100999.41
2022-08-17T11:29:59.517Z,101000.44
2022-08-17T11:32:54.385Z,101000.44
2022-08-17T11:35:24.551Z,101003.31
2022-08-17T11:38:25.382Z,101007.00
2022-08-17T11:41:13.117Z,101018.00
2022-08-17T11:44:03.504Z,101015.09
2022-08-17T11:47:20.094Z,101024.50
2022-08-17T11:50:12.424Z,101027.38
2022-08-17T11:52:48.533Z,101030.50
2022-08-17T11:55:37.545Z,101029.22
2022-08-17T11:58:28.475Z,101031.56
2022-08-17T12:00:58.417Z,101039.94
2022-08-17T12:03:34.063Z,101053.28
2022-08-17T12:06:08.384Z,101054.84
2022-08-17T12:08:43.781Z,101049.84
2022-08-17T12:12:11.175Z,101060.84
2022-08-17T12:15:07.884Z,101049.34
2022-08-17T12:17:50.608Z,101051.44
2022-08-17T12:20:37.596Z,101042.53
2022-08-17T12:23:54.997Z,101044.38
2022-08-17T12:26:30.336Z,101048.53
2022-08-17T12:29:09.242Z,101056.63
2022-08-17T12:31:51.169Z,101049.84
2022-08-17T12:34:28.431Z,101030.91
2022-08-17T12:37:04.029Z,101026.44
2022-08-17T12:39:34.266Z,101018.81
2022-08-17T12:42:04.704Z,101013.75
2022-08-17T12:44:50.073Z,101025.47
2022-08-17T12:47:23.149Z,101030.41
2022-08-17T12:49:57.884Z,101035.88
2022-08-17T12:52:33.587Z,101046.66
2022-08-17T12:55:16.991Z,101041.22
2022-08-17T12:57:51.329Z,101030.25
2022-08-17T13:00:47.489Z,101031.84
2022-08-17T13:03:24.667Z,101027.94
2022-08-17T13:06:04.469Z,101030.13
2022-08-17T13:08:43.845Z,101023.06
2022-08-17T13:11:24.159Z,101031.50
2022-08-17T13:13:57.132Z,101030.75
2022-08-17T13:16:29.895Z,101037.03
2022-08-17T13:19:20.293Z,101029.97
2022-08-17T13:22:14.412Z,101032.28
2022-08-17T13:24:55.718Z,101025.16
2022-08-17T13:27:28.674Z,101043.97
2022-08-17T13:30:01.805Z,101038.16
2022-08-17T13:32:39.948Z,101043.38
2022-08-17T13:35:50.097Z,101046.22
2022-08-17T13:38:51.008Z,101044.16
2022-08-17T13:41:38.939Z,101042.31
2022-08-17T13:44:36.867Z,101034.97
2022-08-17T13:47:17.112Z,101032.09
2022-08-17T13:49:48.785Z,101030.25
2022-08-17T13:52:43.751Z,101038.88
2022-08-17T13:55:23.555Z,101037.56
2022-08-17T13:58:06.878Z,101033.16
2022-08-17T14:00:39.553Z,101024.03
2022-08-17T14:03:08.836Z,101029.25
2022-08-17T14:05:38.358Z,101039.25
2022-08-17T14:08:08.465Z,101042.88
2022-08-17T14:10:38.063Z,101035.31
2022-08-17T14:13:08.576Z,101043.97
2022-08-17T14:15:56.021Z,101039.28
2022-08-17T14:18:55.549Z,101027.75
2022-08-17T14:21:16.261Z,101036.16
2022-08-17T14:23:54.468Z,101023.59
2022-08-17T14:26:24.792Z,101035.47
2022-08-17T14:28:56.564Z,101037.81
2022-08-17T14:31:27.663Z,101033.63
2022-08-17T14:33:58.986Z,101032.34
2022-08-17T14:36:28.368Z,101033.09
2022-08-17T14:38:57.677Z,101023.44
2022-08-17T14:41:27.426Z,101031.59
2022-08-17T14:43:56.760Z,101028.19
2022-08-17T14:46:26.488Z,101017.19
2022-08-17T14:48:57.469Z,101021.13
2022-08-17T14:51:27.659Z,101013.78
2022-08-17T14:53:57.550Z,101014.34
2022-08-17T14:56:28.324Z,101016.41
2022-08-17T14:59:05.008Z,101020.63
2022-08-17T15:01:36.920Z,101011.19
2022-08-17T15:04:06.336Z,101011.97
2022-08-17T15:06:35.663Z,101013.28
2022-08-17T15:09:05.041Z,101002.03
2022-08-17T15:11:35.504Z,101011.97
2022-08-17T15:14:04.924Z,101013.03
2022-08-17T15:16:36.063Z,101013.03
2022-08-17T15:19:07.201Z,101022.75
2022-08-17T15:21:38.508Z,101009.13
2022-08-17T15:24:08.825Z,101007.00
2022-08-17T15:26:39.128Z,101011.72
2022-08-17T15:29:11.961Z,101021.38
2022-08-17T15:31:41.410Z,101017.19
2022-08-17T15:34:10.770Z,101015.09
2022-08-17T15:36:43.866Z,101021.09
2022-08-17T15:39:19.667Z,101021.09
2022-08-17T15:41:58.502Z,101012.44
2022-08-17T15:44:32.483Z,101014.00
2022-08-17T15:47:04.387Z,101014.03
2022-08-17T15:49:33.841Z,101016.34
2022-08-17T15:52:03.173Z,101016.63
2022-08-17T15:54:34.756Z,101010.06
2022-08-17T15:57:05.414Z,101018.47
2022-08-17T15:59:34.890Z,101011.38
2022-08-17T16:03:11.150Z,101014.50
2022-08-17T16:04:53.884Z,101022.34
2022-08-17T16:07:26.743Z,101015.03
2022-08-17T16:09:56.337Z,101007.97
2022-08-17T16:12:25.884Z,101007.16
2022-08-17T16:14:55.859Z,101009.56
2022-08-17T16:17:38.851Z,101009.00
2022-08-17T16:20:19.621Z,101011.63
2022-08-17T16:22:52.698Z,101012.69
2022-08-17T16:25:52.270Z,101024.22
2022-08-17T16:28:16.706Z,101026.84
2022-08-17T16:30:47.207Z,101030.28
2022-08-17T16:33:16.848Z,101025.31
2022-08-17T16:35:46.207Z,101023.25
2022-08-17T16:38:15.573Z,101027.94
2022-08-17T16:40:45.005Z,101028.50
2022-08-17T16:43:17.392Z,101029.50
2022-08-17T16:45:51.803Z,101030.56
2022-08-17T16:48:21.581Z,101026.63
2022-08-17T16:51:02.853Z,101033.72
2022-08-17T16:53:33.185Z,101035.53
2022-08-17T16:56:03.648Z,101033.19
2022-08-17T16:58:33.002Z,101040.25
2022-08-17T17:01:02.483Z,101043.41
2022-08-17T17:03:33.596Z,101043.91
2022-08-17T17:06:27.897Z,101037.63
2022-08-17T17:09:04.421Z,101033.88
2022-08-17T17:11:46.391Z,101036.19
2022-08-17T17:14:25.409Z,101033.09
2022-08-17T17:17:28.066Z,101035.38
2022-08-17T17:20:21.726Z,101035.63
2022-08-17T17:25:41.051Z,101035.03
2022-08-17T17:28:25.002Z,101045.19
2022-08-17T17:30:54.370Z,101031.81
2022-08-17T17:33:34.873Z,101033.09
2022-08-17T17:36:24.373Z,101040.66
2022-08-17T17:39:17.057Z,101035.66
2022-08-17T17:41:51.575Z,101043.75
2022-08-17T17:44:28.773Z,101047.94
2022-08-17T17:47:01.955Z,101045.56
2022-08-17T17:49:49.965Z,101053.91
2022-08-17T17:52:32.407Z,101058.88
2022-08-17T17:55:22.041Z,101054.69
2022-08-17T17:58:05.501Z,101062.03
2022-08-17T18:00:43.427Z,101065.66
2022-08-17T18:03:25.185Z,101075.56
2022-08-17T18:06:09.801Z,101073.72
2022-08-17T18:09:06.244Z,101079.75
2022-08-17T18:11:48.670Z,101087.31
2022-08-17T18:14:28.805Z,101092.72
2022-08-17T18:17:01.296Z,101089.31
2022-08-17T18:19:33.276Z,101085.59
2022-08-17T18:22:13.996Z,101086.06
2022-08-17T18:24:48.627Z,101089.41
2022-08-17T18:27:21.009Z,101096.63
2022-08-17T18:29:50.908Z,101101.25
2022-08-17T18:32:26.544Z,101102.13
2022-08-17T18:35:01.276Z,101102.31
2022-08-17T18:37:38.856Z,101099.84
2022-08-17T18:40:36.156Z,101102.66
2022-08-17T18:43:14.071Z,101099.72
2022-08-17T18:45:53.474Z,101099.94
2022-08-17T18:48:25.534Z,101101.78
2022-08-17T18:50:56.245Z,101099.59
2022-08-17T18:53:46.844Z,101088.00
2022-08-17T18:56:35.767Z,101093.19
2022-08-17T18:59:36.349Z,101109.59
2022-08-17T19:05:27.787Z,101113.94
2022-08-17T19:08:20.516Z,101119.59
2022-08-17T19:10:58.406Z,101111.41
2022-08-17T19:13:37.056Z,101101.66
2022-08-17T19:16:24.394Z,101111.34
2022-08-17T19:19:07.892Z,101108.69
2022-08-17T19:21:45.371Z,101106.97
2022-08-17T19:24:19.933Z,101118.06
2022-08-17T19:26:57.791Z,101120.66
2022-08-17T19:29:48.348Z,101109.41
2022-08-17T19:32:27.452Z,101112.19
2022-08-17T19:34:58.420Z,101115.16
2022-08-17T19:37:56.508Z,101131.41
2022-08-17T19:40:52.959Z,101134.97
2022-08-17T19:43:48.124Z,101145.84
2022-08-17T19:46:39.330Z,101139.53
2022-08-17T19:49:46.709Z,101135.97
2022-08-17T19:52:37.905Z,101151.69
2022-08-17T19:55:36.127Z,101143.31
2022-08-17T19:58:18.133Z,101143.50
2022-08-17T20:00:51.951Z,101149.53
2022-08-17T20:03:30.253Z,101146.47
2022-08-17T20:06:19.095Z,101144.69
2022-08-17T20:09:18.688Z,101149.03
2022-08-17T20:11:58.748Z,101145.28
2022-08-17T20:14:39.312Z,101139.75
2022-08-17T20:17:23.789Z,101139.63
2022-08-17T20:19:58.359Z,101148.22
2022-08-17T20:22:49.643Z,101140.47
2022-08-17T20:25:50.600Z,101149.34
2022-08-17T20:28:27.962Z,101145.84
2022-08-17T20:30:57.977Z,101142.59
2022-08-17T20:33:40.630Z,101142.28
2022-08-17T20:36:26.235Z,101150.59
2022-08-17T20:38:59.326Z,101161.28
2022-08-17T20:41:31.019Z,101152.56
2022-08-17T20:44:00.561Z,101156.72
2022-08-17T20:46:47.468Z,101151.78
2022-08-17T20:49:19.971Z,101153.53
2022-08-17T20:52:01.264Z,101151.19
2022-08-17T20:54:53.833Z,101144.84
2022-08-17T20:57:35.376Z,101148.22
2022-08-17T21:00:18.294Z,101144.44
2022-08-17T21:03:22.766Z,101146.41
2022-08-17T21:05:59.895Z,101147.56
2022-08-17T21:08:43.762Z,101147.00
2022-08-17T21:12:00.042Z,101141.75
2022-08-17T21:14:48.131Z,101140.66
2022-08-17T21:18:06.671Z,101130.97
2022-08-17T21:21:07.073Z,101143.41
2022-08-17T21:23:54.584Z,101141.25
2022-08-17T21:26:35.555Z,101150.78
2022-08-17T21:29:29.670Z,101149.91
2022-08-17T21:32:06.582Z,101145.44
2022-08-17T21:34:43.984Z,101144.84
2022-08-17T21:37:23.380Z,101153.72
2022-08-17T21:40:21.461Z,101156.59
2022-08-17T21:42:55.779Z,101154.38
2022-08-17T21:45:41.675Z,101161.69
2022-08-17T21:48:21.618Z,101158.84
2022-08-17T21:51:12.333Z,101162.94
2022-08-17T21:53:48.256Z,101166.50
2022-08-17T21:56:28.391Z,101161.44
2022-08-17T21:59:24.525Z,101171.91
2022-08-17T22:02:05.727Z,101169.53
2022-08-17T22:04:43.525Z,101178.00
2022-08-17T22:07:16.118Z,101168.50
2022-08-17T22:09:48.823Z,101158.97
2022-08-17T22:12:21.148Z,101152.31
2022-08-17T22:14:56.421Z,101146.91
2022-08-17T22:17:36.576Z,101148.47
2022-08-17T22:20:17.617Z,101147.22
2022-08-17T22:23:05.492Z,101162.16
2022-08-17T22:26:00.178Z,101168.84
2022-08-17T22:28:53.380Z,101168.84
2022-08-17T22:31:32.923Z,101165.50
2022-08-17T22:34:02.364Z,101161.56
2022-08-17T22:36:33.644Z,101161.25
2022-08-17T22:39:26.090Z,101173.19
2022-08-17T22:41:57.224Z,101166.06
2022-08-17T22:44:48.022Z,101163.19
2022-08-17T22:47:18.837Z,101176.06
2022-08-17T22:49:57.828Z,101162.03
2022-08-17T22:53:00.029Z,101161.56
2022-08-17T22:55:44.664Z,101180.91
2022-08-17T22:58:29.540Z,101176.16
2022-08-17T23:01:00.136Z,101176.16
2022-08-17T23:03:30.287Z,101167.88
2022-08-17T23:06:12.510Z,101182.78
2022-08-17T23:08:48.873Z,101187.25
2022-08-17T23:11:18.766Z,101182.31
2022-08-17T23:13:48.480Z,101178.97
2022-08-17T23:16:17.924Z,101179.31
2022-08-17T23:18:50.876Z,101188.88
2022-08-17T23:21:27.412Z,101197.63
2022-08-17T23:23:58.451Z,101193.50
2022-08-17T23:26:27.882Z,101189.38
2022-08-17T23:28:57.324Z,101181.88
2022-08-17T23:31:26.928Z,101181.09
2022-08-17T23:33:57.752Z,101182.47
2022-08-17T23:36:27.168Z,101166.31
2022-08-17T23:38:57.900Z,101158.97
2022-08-17T23:41:31.901Z,101167.22
2022-08-17T23:44:03.023Z,101170.41
2022-08-17T23:46:32.887Z,101178.00
2022-08-17T23:49:03.304Z,101175.44
2022-08-17T23:51:42.617Z,101175.75
2022-08-17T23:54:34.124Z,101172.28
2022-08-17T23:57:09.208Z,101182.25
2022-08-17T23:59:39.610Z,101184.34
